sensor_id;sensor_type;location;lat;lon;timestamp;temperature;humidity
46340;DHT22;47273;49.274;8.708;2022-12-26T04:31:32;11.20;99.90
46340;DHT22;47273;49.274;8.708;2022-12-26T04:34:40;11.20;99.90
46340;DHT22;47273;49.274;8.708;2022-12-26T04:37:25;11.30;99.90
46340;DHT22;47273;49.274;8.708;2022-12-26T04:40:16;11.30;99.90
46340;DHT22;47273;49.274;8.708;2022-12-26T04:43:02;11.30;99.90
46340;DHT22;47273;49.274;8.708;2022-12-26T04:45:48;11.30;99.90
46340;DHT22;47273;49.274;8.708;2022-12-26T04:48:13;11.30;99.90
46340;DHT22;47273;49.274;8.708;2022-12-26T04:50:58;11.30;99.90
46340;DHT22;47273;49.274;8.708;2022-12-26T04:53:23;11.40;99.90
46340;DHT22;47273;49.274;8.708;2022-12-26T04:55:49;11.40;99.90
46340;DHT22;47273;49.274;8.708;2022-12-26T04:58:14;11.40;99.90
46340;DHT22;47273;49.274;8.708;2022-12-26T05:00:45;11.40;99.90
46340;DHT22;47273;49.274;8.708;2022-12-26T05:03:13;11.40;99.90
46340;DHT22;47273;49.274;8.708;2022-12-26T05:05:57;11.40;99.90
46340;DHT22;47273;49.274;8.708;2022-12-26T05:08:45;11.40;99.90
46340;DHT22;47273;49.274;8.708;2022-12-26T05:11:32;11.40;99.90
46340;DHT22;47273;49.274;8.708;2022-12-26T05:13:58;11.40;99.90
46340;DHT22;47273;49.274;8.708;2022-12-26T05:16:26;11.30;99.90
46340;DHT22;47273;49.274;8.708;2022-12-26T05:19:15;11.30;99.90
46340;DHT22;47273;49.274;8.708;2022-12-26T05:22:01;11.30;99.90
46340;DHT22;47273;49.274;8.708;2022-12-26T05:24:47;11.30;99.90
46340;DHT22;47273;49.274;8.708;2022-12-26T05:27:39;11.30;99.90
46340;DHT22;47273;49.274;8.708;2022-12-26T05:30:25;11.30;99.90
46340;DHT22;47273;49.274;8.708;2022-12-26T05:32:51;11.30;99.90
46340;DHT22;47273;49.274;8.708;2022-12-26T05:35:35;11.20;99.90
46340;DHT22;47273;49.274;8.708;2022-12-26T05:38:02;11.30;99.90
46340;DHT22;47273;49.274;8.708;2022-12-26T05:40:28;11.30;99.90
46340;DHT22;47273;49.274;8.708;2022-12-26T05:42:54;11.30;99.90
46340;DHT22;47273;49.274;8.708;2022-12-26T05:45:20;11.30;99.90
46340;DHT22;47273;49.274;8.708;2022-12-26T05:47:45;11.30;99.90
46340;DHT22;47273;49.274;8.708;2022-12-26T05:50:11;11.40;99.90
46340;DHT22;47273;49.274;8.708;2022-12-26T05:52:37;11.40;99.90
46340;DHT22;47273;49.274;8.708;2022-12-26T05:55:02;11.40;99.90
46340;DHT22;47273;49.274;8.708;2022-12-26T05:57:28;11.40;99.90
46340;DHT22;47273;49.274;8.708;2022-12-26T05:59:54;11.30;99.90
46340;DHT22;47273;49.274;8.708;2022-12-26T06:02:19;11.40;99.90
46340;DHT22;47273;49.274;8.708;2022-12-26T06:04:45;11.40;99.90
46340;DHT22;47273;49.274;8.708;2022-12-26T06:07:11;11.40;99.90
46340;DHT22;47273;49.274;8.708;2022-12-26T06:09:36;11.40;99.90
46340;DHT22;47273;49.274;8.708;2022-12-26T06:12:02;11.50;99.90
46340;DHT22;47273;49.274;8.708;2022-12-26T06:14:28;11.50;99.90
46340;DHT22;47273;49.274;8.708;2022-12-26T06:16:53;11.50;99.90
46340;DHT22;47273;49.274;8.708;2022-12-26T06:19:19;11.60;99.90
46340;DHT22;47273;49.274;8.708;2022-12-26T06:21:45;11.60;99.90
46340;DHT22;47273;49.274;8.708;2022-12-26T06:24:10;11.70;99.90
46340;DHT22;47273;49.274;8.708;2022-12-26T06:26:38;11.70;99.90
46340;DHT22;47273;49.274;8.708;2022-12-26T06:29:04;11.70;99.90
46340;DHT22;47273;49.274;8.708;2022-12-26T06:31:30;11.70;99.90
46340;DHT22;47273;49.274;8.708;2022-12-26T06:33:57;11.70;99.90
46340;DHT22;47273;49.274;8.708;2022-12-26T06:36:26;11.70;99.90
46340;DHT22;47273;49.274;8.708;2022-12-26T06:38:53;11.80;99.90
46340;DHT22;47273;49.274;8.708;2022-12-26T06:41:20;11.80;99.90
46340;DHT22;47273;49.274;8.708;2022-12-26T06:43:46;11.80;99.90
46340;DHT22;47273;49.274;8.708;2022-12-26T06:46:15;11.80;99.90
46340;DHT22;47273;49.274;8.708;2022-12-26T06:48:41;11.80;99.90
46340;DHT22;47273;49.274;8.708;2022-12-26T06:51:19;11.90;99.90
46340;DHT22;47273;49.274;8.708;2022-12-26T06:53:46;11.90;99.90
46340;DHT22;47273;49.274;8.708;2022-12-26T06:56:15;11.90;99.90
46340;DHT22;47273;49.274;8.708;2022-12-26T06:58:41;11.90;99.90
46340;DHT22;47273;49.274;8.708;2022-12-26T07:01:12;12.00;99.90
46340;DHT22;47273;49.274;8.708;2022-12-26T07:03:38;12.00;99.90
46340;DHT22;47273;49.274;8.708;2022-12-26T07:06:07;12.00;99.90
46340;DHT22;47273;49.274;8.708;2022-12-26T07:08:35;12.00;99.90
46340;DHT22;47273;49.274;8.708;2022-12-26T07:11:01;12.10;99.90
46340;DHT22;47273;49.274;8.708;2022-12-26T07:13:26;12.10;99.90
46340;DHT22;47273;49.274;8.708;2022-12-26T07:15:52;12.10;99.90
46340;DHT22;47273;49.274;8.708;2022-12-26T07:18:18;12.10;99.90
46340;DHT22;47273;49.274;8.708;2022-12-26T07:20:44;12.10;99.90
46340;DHT22;47273;49.274;8.708;2022-12-26T07:23:09;12.10;99.90
46340;DHT22;47273;49.274;8.708;2022-12-26T07:25:38;12.10;99.90
46340;DHT22;47273;49.274;8.708;2022-12-26T07:28:04;12.10;99.90
46340;DHT22;47273;49.274;8.708;2022-12-26T07:30:30;12.10;99.90
46340;DHT22;47273;49.274;8.708;2022-12-26T07:32:55;12.10;99.90
46340;DHT22;47273;49.274;8.708;2022-12-26T07:35:21;12.10;99.90
46340;DHT22;47273;49.274;8.708;2022-12-26T07:37:47;12.10;99.90
46340;DHT22;47273;49.274;8.708;2022-12-26T07:40:12;12.10;99.90
46340;DHT22;47273;49.274;8.708;2022-12-26T07:42:38;12.10;99.90
46340;DHT22;47273;49.274;8.708;2022-12-26T07:45:04;12.10;99.90
46340;DHT22;47273;49.274;8.708;2022-12-26T07:47:30;12.10;99.90
46340;DHT22;47273;49.274;8.708;2022-12-26T07:49:55;12.10;99.90
46340;DHT22;47273;49.274;8.708;2022-12-26T07:52:21;12.20;99.90
46340;DHT22;47273;49.274;8.708;2022-12-26T07:54:49;12.20;99.90
46340;DHT22;47273;49.274;8.708;2022-12-26T07:57:15;12.10;99.90
46340;DHT22;47273;49.274;8.708;2022-12-26T07:59:40;12.10;99.90
46340;DHT22;47273;49.274;8.708;2022-12-26T08:02:09;12.20;99.90
46340;DHT22;47273;49.274;8.708;2022-12-26T08:04:34;12.20;99.90
46340;DHT22;47273;49.274;8.708;2022-12-26T08:07:00;12.20;99.90
46340;DHT22;47273;49.274;8.708;2022-12-26T08:09:26;12.20;99.90
46340;DHT22;47273;49.274;8.708;2022-12-26T08:11:51;12.20;99.90
46340;DHT22;47273;49.274;8.708;2022-12-26T08:14:17;12.20;99.90
46340;DHT22;47273;49.274;8.708;2022-12-26T08:16:43;12.20;99.90
46340;DHT22;47273;49.274;8.708;2022-12-26T08:19:09;12.10;99.90
46340;DHT22;47273;49.274;8.708;2022-12-26T08:21:36;12.10;99.90
46340;DHT22;47273;49.274;8.708;2022-12-26T08:24:01;12.20;99.90
46340;DHT22;47273;49.274;8.708;2022-12-26T08:26:27;12.20;99.90
46340;DHT22;47273;49.274;8.708;2022-12-26T08:28:54;12.20;99.90
46340;DHT22;47273;49.274;8.708;2022-12-26T08:31:20;12.20;99.90
46340;DHT22;47273;49.274;8.708;2022-12-26T08:33:46;12.20;99.90
46340;DHT22;47273;49.274;8.708;2022-12-26T08:36:13;12.20;99.90
46340;DHT22;47273;49.274;8.708;2022-12-26T08:38:41;12.20;99.90
46340;DHT22;47273;49.274;8.708;2022-12-26T08:41:07;12.20;99.90
46340;DHT22;47273;49.274;8.708;2022-12-26T08:43:33;12.20;99.90
46340;DHT22;47273;49.274;8.708;2022-12-26T08:46:02;12.20;99.90
46340;DHT22;47273;49.274;8.708;2022-12-26T08:48:29;12.20;99.90
46340;DHT22;47273;49.274;8.708;2022-12-26T08:51:04;12.20;99.90
46340;DHT22;47273;49.274;8.708;2022-12-26T08:53:30;12.10;99.90
46340;DHT22;47273;49.274;8.708;2022-12-26T08:55:58;12.10;99.90
46340;DHT22;47273;49.274;8.708;2022-12-26T08:58:24;12.10;99.90
46340;DHT22;47273;49.274;8.708;2022-12-26T09:00:50;12.10;99.90
46340;DHT22;47273;49.274;8.708;2022-12-26T09:03:16;12.10;99.90
46340;DHT22;47273;49.274;8.708;2022-12-26T09:05:42;12.10;99.90
46340;DHT22;47273;49.274;8.708;2022-12-26T09:08:08;12.10;99.90
46340;DHT22;47273;49.274;8.708;2022-12-26T09:10:34;12.10;99.90
46340;DHT22;47273;49.274;8.708;2022-12-26T09:13:00;12.10;99.90
46340;DHT22;47273;49.274;8.708;2022-12-26T09:15:25;12.10;99.90
46340;DHT22;47273;49.274;8.708;2022-12-26T09:17:51;12.10;99.90
46340;DHT22;47273;49.274;8.708;2022-12-26T09:20:17;12.10;99.90
46340;DHT22;47273;49.274;8.708;2022-12-26T09:22:42;12.10;99.90
46340;DHT22;47273;49.274;8.708;2022-12-26T09:25:22;12.10;99.90
46340;DHT22;47273;49.274;8.708;2022-12-26T09:27:48;12.10;99.90
46340;DHT22;47273;49.274;8.708;2022-12-26T09:30:15;12.10;99.90
46340;DHT22;47273;49.274;8.708;2022-12-26T09:32:40;12.10;99.90
46340;DHT22;47273;49.274;8.708;2022-12-26T09:35:06;12.00;99.90
46340;DHT22;47273;49.274;8.708;2022-12-26T09:37:32;12.10;99.90
46340;DHT22;47273;49.274;8.708;2022-12-26T09:39:58;12.10;99.90
46340;DHT22;47273;49.274;8.708;2022-12-26T09:45:48;12.10;99.90
46340;DHT22;47273;49.274;8.708;2022-12-26T09:48:26;12.10;99.90
46340;DHT22;47273;49.274;8.708;2022-12-26T09:50:53;12.10;99.90
46340;DHT22;47273;49.274;8.708;2022-12-26T09:53:30;12.10;99.90
46340;DHT22;47273;49.274;8.708;2022-12-26T09:56:04;12.10;99.90
46340;DHT22;47273;49.274;8.708;2022-12-26T09:58:49;12.10;99.90
46340;DHT22;47273;49.274;8.708;2022-12-26T10:01:27;12.10;99.90
46340;DHT22;47273;49.274;8.708;2022-12-26T10:03:56;12.10;99.90
46340;DHT22;47273;49.274;8.708;2022-12-26T10:09:24;12.10;99.90
46340;DHT22;47273;49.274;8.708;2022-12-26T10:17:43;12.10;99.90
46340;DHT22;47273;49.274;8.708;2022-12-26T10:20:35;12.10;99.90
46340;DHT22;47273;49.274;8.708;2022-12-26T10:25:55;12.00;99.90
46340;DHT22;47273;49.274;8.708;2022-12-26T10:28:32;12.00;99.90
46340;DHT22;47273;49.274;8.708;2022-12-26T10:31:01;12.00;99.90
46340;DHT22;47273;49.274;8.708;2022-12-26T10:33:41;12.00;99.90
46340;DHT22;47273;49.274;8.708;2022-12-26T10:36:36;12.10;99.90
46340;DHT22;47273;49.274;8.708;2022-12-26T10:39:07;12.00;99.90
46340;DHT22;47273;49.274;8.708;2022-12-26T10:41:41;12.00;99.90
46340;DHT22;47273;49.274;8.708;2022-12-26T10:44:11;12.00;99.90
46340;DHT22;47273;49.274;8.708;2022-12-26T10:46:52;12.00;99.90
46340;DHT22;47273;49.274;8.708;2022-12-26T10:49:21;12.00;99.90
46340;DHT22;47273;49.274;8.708;2022-12-26T10:51:49;12.00;99.90
46340;DHT22;47273;49.274;8.708;2022-12-26T10:54:16;12.00;99.90
46340;DHT22;47273;49.274;8.708;2022-12-26T10:56:44;12.10;99.90
46340;DHT22;47273;49.274;8.708;2022-12-26T10:59:17;12.10;99.90
46340;DHT22;47273;49.274;8.708;2022-12-26T11:01:43;12.10;99.90
46340;DHT22;47273;49.274;8.708;2022-12-26T11:04:24;12.10;99.90
46340;DHT22;47273;49.274;8.708;2022-12-26T11:06:51;12.20;99.90
46340;DHT22;47273;49.274;8.708;2022-12-26T11:09:41;12.10;99.90
46340;DHT22;47273;49.274;8.708;2022-12-26T11:12:35;12.10;99.90
46340;DHT22;47273;49.274;8.708;2022-12-26T11:15:21;12.20;99.90
46340;DHT22;47273;49.274;8.708;2022-12-26T11:17:48;12.20;99.90
46340;DHT22;47273;49.274;8.708;2022-12-26T11:22:42;12.10;99.90
46340;DHT22;47273;49.274;8.708;2022-12-26T11:27:38;12.40;99.90
46340;DHT22;47273;49.274;8.708;2022-12-26T11:30:26;12.20;99.90
46340;DHT22;47273;49.274;8.708;2022-12-26T11:38:20;12.20;99.90
46340;DHT22;47273;49.274;8.708;2022-12-26T11:41:12;12.30;99.90
46340;DHT22;47273;49.274;8.708;2022-12-26T11:46:43;12.30;99.90
46340;DHT22;47273;49.274;8.708;2022-12-26T11:49:31;12.30;99.90
46340;DHT22;47273;49.274;8.708;2022-12-26T11:51:58;12.20;99.90
46340;DHT22;47273;49.274;8.708;2022-12-26T11:57:19;12.30;99.90
46340;DHT22;47273;49.274;8.708;2022-12-26T11:59:47;12.20;99.90
46340;DHT22;47273;49.274;8.708;2022-12-26T12:02:17;12.20;99.90
46340;DHT22;47273;49.274;8.708;2022-12-26T12:04:47;12.20;99.90
46340;DHT22;47273;49.274;8.708;2022-12-26T12:07:36;12.30;99.90
46340;DHT22;47273;49.274;8.708;2022-12-26T12:13:24;12.30;99.90
46340;DHT22;47273;49.274;8.708;2022-12-26T12:26:28;12.30;99.90
46340;DHT22;47273;49.274;8.708;2022-12-26T12:31:56;12.20;99.90
46340;DHT22;47273;49.274;8.708;2022-12-26T12:39:55;12.30;99.90
46340;DHT22;47273;49.274;8.708;2022-12-26T12:50:57;12.20;99.90
46340;DHT22;47273;49.274;8.708;2022-12-26T13:01:49;12.10;99.90
46340;DHT22;47273;49.274;8.708;2022-12-26T13:04:42;12.20;99.90
46340;DHT22;47273;49.274;8.708;2022-12-26T13:07:21;12.20;99.90
46340;DHT22;47273;49.274;8.708;2022-12-26T13:10:00;12.30;99.90
46340;DHT22;47273;49.274;8.708;2022-12-26T13:12:30;12.30;99.90
46340;DHT22;47273;49.274;8.708;2022-12-26T13:18:27;12.20;99.90
46340;DHT22;47273;49.274;8.708;2022-12-26T13:21:04;12.20;99.90
46340;DHT22;47273;49.274;8.708;2022-12-26T13:23:39;12.20;99.90
46340;DHT22;47273;49.274;8.708;2022-12-26T13:26:48;12.20;99.90
46340;DHT22;47273;49.274;8.708;2022-12-26T13:29:24;12.20;99.90
46340;DHT22;47273;49.274;8.708;2022-12-26T13:31:52;12.20;99.90
46340;DHT22;47273;49.274;8.708;2022-12-26T13:34:19;12.20;99.90
46340;DHT22;47273;49.274;8.708;2022-12-26T13:36:47;12.10;99.90
46340;DHT22;47273;49.274;8.708;2022-12-26T13:44:52;12.10;99.90
46340;DHT22;47273;49.274;8.708;2022-12-26T13:47:36;12.10;99.90
46340;DHT22;47273;49.274;8.708;2022-12-26T13:55:58;12.10;99.90
46340;DHT22;47273;49.274;8.708;2022-12-26T14:01:26;12.30;99.90
46340;DHT22;47273;49.274;8.708;2022-12-26T14:21:11;12.40;99.90
46340;DHT22;47273;49.274;8.708;2022-12-26T14:31:52;12.30;99.90
46340;DHT22;47273;49.274;8.708;2022-12-26T14:34:50;12.20;99.90
46340;DHT22;47273;49.274;8.708;2022-12-26T14:40:30;12.20;99.90
46340;DHT22;47273;49.274;8.708;2022-12-26T14:43:12;12.10;99.90
46340;DHT22;47273;49.274;8.708;2022-12-26T14:45:44;12.10;99.90
46340;DHT22;47273;49.274;8.708;2022-12-26T14:50:49;12.10;99.90
46340;DHT22;47273;49.274;8.708;2022-12-26T14:56:28;12.10;99.90
46340;DHT22;47273;49.274;8.708;2022-12-26T14:59:31;12.10;99.90
46340;DHT22;47273;49.274;8.708;2022-12-26T15:02:08;12.00;99.90
46340;DHT22;47273;49.274;8.708;2022-12-26T15:13:28;12.00;99.90
46340;DHT22;47273;49.274;8.708;2022-12-26T15:16:13;12.00;99.90
46340;DHT22;47273;49.274;8.708;2022-12-26T15:19:32;11.90;99.90
46340;DHT22;47273;49.274;8.708;2022-12-26T15:21:41;12.00;99.90
46340;DHT22;47273;49.274;8.708;2022-12-26T15:24:39;11.90;99.90
46340;DHT22;47273;49.274;8.708;2022-12-26T15:29:50;11.90;99.90
46340;DHT22;47273;49.274;8.708;2022-12-26T15:32:50;11.90;99.90
46340;DHT22;47273;49.274;8.708;2022-12-26T15:37:45;11.80;99.90
46340;DHT22;47273;49.274;8.708;2022-12-26T15:48:28;11.80;99.90
46340;DHT22;47273;49.274;8.708;2022-12-26T15:51:10;11.70;99.90
46340;DHT22;47273;49.274;8.708;2022-12-26T16:04:53;11.70;99.90
46340;DHT22;47273;49.274;8.708;2022-12-26T16:07:40;11.70;99.90
46340;DHT22;47273;49.274;8.708;2022-12-26T16:10:29;11.70;99.90
46340;DHT22;47273;49.274;8.708;2022-12-26T16:13:05;11.70;99.90
46340;DHT22;47273;49.274;8.708;2022-12-26T16:15:32;11.70;99.90
46340;DHT22;47273;49.274;8.708;2022-12-26T16:18:33;11.70;99.90
46340;DHT22;47273;49.274;8.708;2022-12-26T16:21:02;11.70;99.90
46340;DHT22;47273;49.274;8.708;2022-12-26T16:23:49;11.70;99.90
46340;DHT22;47273;49.274;8.708;2022-12-26T16:26:26;11.70;99.90
46340;DHT22;47273;49.274;8.708;2022-12-26T16:28:54;11.70;99.90
46340;DHT22;47273;49.274;8.708;2022-12-26T16:31:24;11.70;99.90
46340;DHT22;47273;49.274;8.708;2022-12-26T16:33:52;11.60;99.90
46340;DHT22;47273;49.274;8.708;2022-12-26T16:36:21;11.60;99.90
46340;DHT22;47273;49.274;8.708;2022-12-26T16:38:47;11.60;99.90
46340;DHT22;47273;49.274;8.708;2022-12-26T16:41:30;11.60;99.90
46340;DHT22;47273;49.274;8.708;2022-12-26T16:46:43;11.60;99.90
46340;DHT22;47273;49.274;8.708;2022-12-26T16:49:09;11.60;99.90
46340;DHT22;47273;49.274;8.708;2022-12-26T16:51:44;11.60;99.90
46340;DHT22;47273;49.274;8.708;2022-12-26T16:54:56;11.50;99.90
46340;DHT22;47273;49.274;8.708;2022-12-26T16:57:19;11.60;99.90
46340;DHT22;47273;49.274;8.708;2022-12-26T16:59:54;11.60;99.90
46340;DHT22;47273;49.274;8.708;2022-12-26T17:02:32;11.60;99.90
46340;DHT22;47273;49.274;8.708;2022-12-26T17:05:21;11.60;99.90
46340;DHT22;47273;49.274;8.708;2022-12-26T17:07:49;11.60;99.90
46340;DHT22;47273;49.274;8.708;2022-12-26T17:12:55;11.60;99.90
46340;DHT22;47273;49.274;8.708;2022-12-26T17:15:25;11.50;99.90
46340;DHT22;47273;49.274;8.708;2022-12-26T17:17:51;11.60;99.90
46340;DHT22;47273;49.274;8.708;2022-12-26T17:20:32;11.60;99.90
46340;DHT22;47273;49.274;8.708;2022-12-26T17:22:58;11.50;99.90
46340;DHT22;47273;49.274;8.708;2022-12-26T17:30:47;11.50;99.90
46340;DHT22;47273;49.274;8.708;2022-12-26T17:33:14;11.20;99.90
46340;DHT22;47273;49.274;8.708;2022-12-26T17:35:43;11.40;99.90
46340;DHT22;47273;49.274;8.708;2022-12-26T17:38:13;11.40;99.90
46340;DHT22;47273;49.274;8.708;2022-12-26T17:40:41;11.50;99.90
46340;DHT22;47273;49.274;8.708;2022-12-26T17:45:36;11.40;99.90
46340;DHT22;47273;49.274;8.708;2022-12-26T17:48:03;11.30;99.90
46340;DHT22;47273;49.274;8.708;2022-12-26T17:50:32;11.30;99.90
46340;DHT22;47273;49.274;8.708;2022-12-26T17:53:24;11.20;99.90
46340;DHT22;47273;49.274;8.708;2022-12-26T17:55:49;11.20;99.90
46340;DHT22;47273;49.274;8.708;2022-12-26T17:58:15;11.20;99.90
46340;DHT22;47273;49.274;8.708;2022-12-26T18:00:42;11.20;99.90
46340;DHT22;47273;49.274;8.708;2022-12-26T18:03:08;11.10;99.90
46340;DHT22;47273;49.274;8.708;2022-12-26T18:05:34;11.10;99.90
46340;DHT22;47273;49.274;8.708;2022-12-26T18:08:00;11.10;99.90
46340;DHT22;47273;49.274;8.708;2022-12-26T18:10:30;11.00;99.90
46340;DHT22;47273;49.274;8.708;2022-12-26T18:12:57;11.00;99.90
46340;DHT22;47273;49.274;8.708;2022-12-26T18:15:25;10.90;99.90
46340;DHT22;47273;49.274;8.708;2022-12-26T18:17:52;10.90;99.90
46340;DHT22;47273;49.274;8.708;2022-12-26T18:20:26;10.90;99.90
46340;DHT22;47273;49.274;8.708;2022-12-26T18:22:52;10.90;99.90
46340;DHT22;47273;49.274;8.708;2022-12-26T18:25:21;10.80;99.90
46340;DHT22;47273;49.274;8.708;2022-12-26T18:27:46;10.70;99.90
46340;DHT22;47273;49.274;8.708;2022-12-26T18:30:17;10.70;99.90
46340;DHT22;47273;49.274;8.708;2022-12-26T18:32:43;10.70;99.90
46340;DHT22;47273;49.274;8.708;2022-12-26T18:35:11;10.50;99.90
46340;DHT22;47273;49.274;8.708;2022-12-26T18:37:37;10.50;99.90
46340;DHT22;47273;49.274;8.708;2022-12-26T18:40:04;10.50;99.90
46340;DHT22;47273;49.274;8.708;2022-12-26T18:42:29;10.60;99.90
46340;DHT22;47273;49.274;8.708;2022-12-26T18:44:55;10.60;99.90
46340;DHT22;47273;49.274;8.708;2022-12-26T18:47:21;10.60;99.90
46340;DHT22;47273;49.274;8.708;2022-12-26T18:49:48;10.60;99.90
46340;DHT22;47273;49.274;8.708;2022-12-26T18:52:14;10.60;99.90
46340;DHT22;47273;49.274;8.708;2022-12-26T18:54:40;10.60;99.90
46340;DHT22;47273;49.274;8.708;2022-12-26T18:57:09;10.60;99.90
46340;DHT22;47273;49.274;8.708;2022-12-26T18:59:37;10.50;99.90
46340;DHT22;47273;49.274;8.708;2022-12-26T19:02:02;10.50;99.90
46340;DHT22;47273;49.274;8.708;2022-12-26T19:04:28;10.40;99.90
46340;DHT22;47273;49.274;8.708;2022-12-26T19:06:54;10.50;99.90
46340;DHT22;47273;49.274;8.708;2022-12-26T19:09:19;10.40;99.90
46340;DHT22;47273;49.274;8.708;2022-12-26T19:11:45;10.40;99.90
46340;DHT22;47273;49.274;8.708;2022-12-26T19:14:19;10.40;99.90
46340;DHT22;47273;49.274;8.708;2022-12-26T19:16:45;10.40;99.90
46340;DHT22;47273;49.274;8.708;2022-12-26T19:19:11;10.40;99.90
46340;DHT22;47273;49.274;8.708;2022-12-26T19:21:36;10.30;99.90
46340;DHT22;47273;49.274;8.708;2022-12-26T19:24:02;10.40;99.90
46340;DHT22;47273;49.274;8.708;2022-12-26T19:26:28;10.40;99.90
46340;DHT22;47273;49.274;8.708;2022-12-26T19:28:54;10.40;99.90
46340;DHT22;47273;49.274;8.708;2022-12-26T19:31:21;10.40;99.90
46340;DHT22;47273;49.274;8.708;2022-12-26T19:33:47;10.30;99.90
46340;DHT22;47273;49.274;8.708;2022-12-26T19:36:13;10.30;99.90
46340;DHT22;47273;49.274;8.708;2022-12-26T19:38:39;10.30;99.90
46340;DHT22;47273;49.274;8.708;2022-12-26T19:41:08;10.20;99.90
46340;DHT22;47273;49.274;8.708;2022-12-26T19:43:34;10.20;99.90
46340;DHT22;47273;49.274;8.708;2022-12-26T19:46:01;10.10;99.90
46340;DHT22;47273;49.274;8.708;2022-12-26T19:48:29;10.10;99.90
46340;DHT22;47273;49.274;8.708;2022-12-26T19:51:02;10.10;99.90
46340;DHT22;47273;49.274;8.708;2022-12-26T19:53:28;10.10;99.90
46340;DHT22;47273;49.274;8.708;2022-12-26T19:55:53;10.00;99.90
46340;DHT22;47273;49.274;8.708;2022-12-26T19:58:19;10.00;99.90
46340;DHT22;47273;49.274;8.708;2022-12-26T20:00:45;10.00;99.90
46340;DHT22;47273;49.274;8.708;2022-12-26T20:03:11;9.90;99.90
46340;DHT22;47273;49.274;8.708;2022-12-26T20:05:37;9.90;99.90
46340;DHT22;47273;49.274;8.708;2022-12-26T20:08:03;9.90;99.90
46340;DHT22;47273;49.274;8.708;2022-12-26T20:10:29;9.90;99.90
46340;DHT22;47273;49.274;8.708;2022-12-26T20:12:55;9.80;99.90
46340;DHT22;47273;49.274;8.708;2022-12-26T20:15:20;9.80;99.90
46340;DHT22;47273;49.274;8.708;2022-12-26T20:17:46;9.80;99.90
46340;DHT22;47273;49.274;8.708;2022-12-26T20:20:13;9.70;99.90
46340;DHT22;47273;49.274;8.708;2022-12-26T20:22:39;9.70;99.90
46340;DHT22;47273;49.274;8.708;2022-12-26T20:25:05;9.60;99.90
46340;DHT22;47273;49.274;8.708;2022-12-26T20:27:34;9.70;99.90
46340;DHT22;47273;49.274;8.708;2022-12-26T20:30:00;9.70;99.90
46340;DHT22;47273;49.274;8.708;2022-12-26T20:32:26;9.60;99.90
46340;DHT22;47273;49.274;8.708;2022-12-26T20:34:52;9.50;99.90
46340;DHT22;47273;49.274;8.708;2022-12-26T20:37:17;9.50;99.90
46340;DHT22;47273;49.274;8.708;2022-12-26T20:39:43;9.50;99.90
46340;DHT22;47273;49.274;8.708;2022-12-26T20:42:09;9.40;99.90
46340;DHT22;47273;49.274;8.708;2022-12-26T20:44:35;9.50;99.90
46340;DHT22;47273;49.274;8.708;2022-12-26T20:47:06;9.50;99.90
46340;DHT22;47273;49.274;8.708;2022-12-26T20:49:31;9.50;99.90
46340;DHT22;47273;49.274;8.708;2022-12-26T20:52:00;9.50;99.90
46340;DHT22;47273;49.274;8.708;2022-12-26T20:54:26;9.50;99.90
46340;DHT22;47273;49.274;8.708;2022-12-26T20:56:52;9.50;99.90
46340;DHT22;47273;49.274;8.708;2022-12-26T20:59:17;9.50;99.90
46340;DHT22;47273;49.274;8.708;2022-12-26T21:01:44;9.50;99.90
46340;DHT22;47273;49.274;8.708;2022-12-26T21:04:17;9.50;99.90
46340;DHT22;47273;49.274;8.708;2022-12-26T21:06:43;9.50;99.90
46340;DHT22;47273;49.274;8.708;2022-12-26T21:09:10;9.40;99.90
46340;DHT22;47273;49.274;8.708;2022-12-26T21:11:38;9.40;99.90
46340;DHT22;47273;49.274;8.708;2022-12-26T21:14:06;9.50;99.90
46340;DHT22;47273;49.274;8.708;2022-12-26T21:16:40;9.40;99.90
46340;DHT22;47273;49.274;8.708;2022-12-26T21:19:07;9.40;99.90
46340;DHT22;47273;49.274;8.708;2022-12-26T21:21:35;9.40;99.90
46340;DHT22;47273;49.274;8.708;2022-12-26T21:24:06;9.40;99.90
46340;DHT22;47273;49.274;8.708;2022-12-26T21:26:37;9.30;99.90
46340;DHT22;47273;49.274;8.708;2022-12-26T21:29:05;9.30;99.90
